createdAt,value
2022-08-05T00:01:36.018Z,3.33
2022-08-05T00:04:05.228Z,3.47
2022-08-05T00:06:35.901Z,3.33
2022-08-05T00:09:04.701Z,3.10
2022-08-05T00:11:49.057Z,3.70
2022-08-05T00:14:17.434Z,3.50
2022-08-05T00:16:52.110Z,3.40
2022-08-05T00:19:24.966Z,3.85
2022-08-05T00:22:00.212Z,3.15
2022-08-05T00:24:30.658Z,3.42
2022-08-05T00:26:59.491Z,3.30
2022-08-05T00:29:27.589Z,3.60
2022-08-05T00:32:12.790Z,3.30
2022-08-05T00:35:03.564Z,3.40
2022-08-05T00:37:35.770Z,3.63
2022-08-05T00:40:26.960Z,3.45
2022-08-05T00:43:00.562Z,4.07
2022-08-05T00:45:43.138Z,3.70
2022-08-05T00:48:12.811Z,3.25
2022-08-05T00:50:44.064Z,3.15
2022-08-05T00:54:00.253Z,3.42
2022-08-05T00:55:59.098Z,3.30
2022-08-05T00:58:27.419Z,4.25
2022-08-05T01:00:55.206Z,3.80
2022-08-05T01:03:23.488Z,3.15
2022-08-05T01:05:51.594Z,3.58
2022-08-05T01:08:40.292Z,4.45
2022-08-05T01:11:13.680Z,3.70
2022-08-05T01:13:59.775Z,3.78
2022-08-05T01:17:04.705Z,3.60
2022-08-05T01:20:00.829Z,4.10
2022-08-05T01:23:14.322Z,3.85
2022-08-05T01:26:06.838Z,3.85
2022-08-05T01:28:56.899Z,3.42
2022-08-05T01:31:53.811Z,3.70
2022-08-05T01:34:33.482Z,4.35
2022-08-05T01:37:24.546Z,4.15
2022-08-05T01:39:54.944Z,3.38
2022-08-05T01:42:28.100Z,3.58
2022-08-05T01:44:57.349Z,3.40
2022-08-05T01:47:38.773Z,3.90
2022-08-05T01:50:15.576Z,4.65
2022-08-05T01:52:44.489Z,4.63
2022-08-05T01:55:13.033Z,5.35
2022-08-05T01:58:18.779Z,4.60
2022-08-05T02:00:31.851Z,4.20
2022-08-05T02:03:03.903Z,3.95
2022-08-05T02:05:34.246Z,4.90
2022-08-05T02:08:03.478Z,4.03
2022-08-05T02:10:42.080Z,4.07
2022-08-05T02:13:17.794Z,4.22
2022-08-05T02:15:47.764Z,3.78
2022-08-05T02:18:31.653Z,3.85
2022-08-05T02:21:15.302Z,4.05
2022-08-05T02:23:44.783Z,4.00
2022-08-05T02:26:17.189Z,4.07
2022-08-05T02:28:46.253Z,4.40
2022-08-05T02:31:22.473Z,3.80
2022-08-05T02:33:57.409Z,3.90
2022-08-05T02:36:27.549Z,4.55
2022-08-05T02:38:55.896Z,3.80
2022-08-05T02:41:28.923Z,3.60
2022-08-05T02:44:11.958Z,4.18
2022-08-05T02:46:53.474Z,3.50
2022-08-05T02:52:02.906Z,4.25
2022-08-05T02:54:34.857Z,5.15
2022-08-05T02:57:09.802Z,3.90
2022-08-05T02:59:54.544Z,4.07
2022-08-05T03:02:25.205Z,4.60
2022-08-05T03:04:55.515Z,3.72
2022-08-05T03:08:01.213Z,3.95
2022-08-05T03:10:24.475Z,3.58
2022-08-05T03:12:54.186Z,3.80
2022-08-05T03:15:23.641Z,3.80
2022-08-05T03:17:55.489Z,4.40
2022-08-05T03:20:24.436Z,4.20
2022-08-05T03:22:52.725Z,3.60
2022-08-05T03:25:33.445Z,3.80
2022-08-05T03:28:10.850Z,3.70
2022-08-05T03:30:41.277Z,3.33
2022-08-05T03:33:09.594Z,3.90
2022-08-05T03:35:41.012Z,3.25
2022-08-05T03:38:11.728Z,4.28
2022-08-05T03:40:48.465Z,3.72
2022-08-05T03:44:08.731Z,3.65
2022-08-05T03:46:04.505Z,3.65
2022-08-05T03:48:35.203Z,3.58
2022-08-05T03:52:37.822Z,3.65
2022-08-05T03:55:50.264Z,3.80
2022-08-05T03:56:47.079Z,4.70
2022-08-05T03:59:20.721Z,3.60
2022-08-05T04:01:49.979Z,3.17
2022-08-05T04:04:21.136Z,3.45
2022-08-05T04:06:51.305Z,3.13
2022-08-05T04:09:25.841Z,3.25
2022-08-05T04:11:56.428Z,3.30
2022-08-05T04:14:30.405Z,3.70
2022-08-05T04:16:59.811Z,3.28
2022-08-05T04:19:28.687Z,3.88
2022-08-05T04:22:09.301Z,3.92
2022-08-05T04:24:44.463Z,3.88
2022-08-05T04:27:19.468Z,3.40
2022-08-05T04:30:07.985Z,3.47
2022-08-05T04:32:36.456Z,4.03
2022-08-05T04:35:05.066Z,3.67
2022-08-05T04:38:01.647Z,3.50
2022-08-05T04:40:20.355Z,3.65
2022-08-05T04:42:47.474Z,3.50
2022-08-05T04:45:31.165Z,3.80
2022-08-05T04:48:16.586Z,3.88
2022-08-05T04:51:02.773Z,3.88
2022-08-05T04:53:38.921Z,3.80
2022-08-05T04:56:32.912Z,3.55
2022-08-05T04:58:56.457Z,3.63
2022-08-05T05:02:05.971Z,3.47
2022-08-05T05:04:11.122Z,3.92
2022-08-05T05:06:44.471Z,3.08
2022-08-05T05:09:14.306Z,3.38
2022-08-05T05:11:55.422Z,3.72
2022-08-05T05:14:31.469Z,3.92
2022-08-05T05:17:03.378Z,3.75
2022-08-05T05:19:36.839Z,3.38
2022-08-05T05:22:22.718Z,3.42
2022-08-05T05:24:57.874Z,3.25
2022-08-05T05:27:45.250Z,4.00
2022-08-05T05:30:29.316Z,4.22
2022-08-05T05:33:00.840Z,3.88
2022-08-05T05:35:34.418Z,3.28
2022-08-05T05:38:09.254Z,3.92
2022-08-05T05:40:48.291Z,3.45
2022-08-05T05:43:27.516Z,3.72
2022-08-05T05:46:12.265Z,4.07
2022-08-05T05:48:43.926Z,3.95
2022-08-05T05:51:15.726Z,4.32
2022-08-05T05:53:54.080Z,3.80
2022-08-05T05:56:32.240Z,3.63
2022-08-05T05:59:06.741Z,4.35
2022-08-05T06:01:37.406Z,3.60
2022-08-05T06:04:12.196Z,4.10
2022-08-05T06:06:47.798Z,4.60
2022-08-05T06:09:26.694Z,3.97
2022-08-05T06:12:03.970Z,3.92
2022-08-05T06:14:31.503Z,4.70
2022-08-05T06:16:59.022Z,4.20
2022-08-05T06:19:34.447Z,3.80
2022-08-05T06:22:07.228Z,3.97
2022-08-05T06:24:35.336Z,4.93
2022-08-05T06:27:03.900Z,4.43
2022-08-05T06:29:46.447Z,3.75
2022-08-05T06:32:25.292Z,3.97
2022-08-05T06:34:59.278Z,3.20
2022-08-05T06:37:52.347Z,3.80
2022-08-05T06:40:18.477Z,4.13
2022-08-05T06:42:52.273Z,3.30
2022-08-05T06:45:44.466Z,3.50
2022-08-05T06:48:36.741Z,3.05
2022-08-05T06:50:56.004Z,3.03
2022-08-05T06:53:28.438Z,4.50
2022-08-05T06:56:00.138Z,3.38
2022-08-05T06:58:35.437Z,3.33
2022-08-05T07:01:05.766Z,3.10
2022-08-05T07:03:33.876Z,4.40
2022-08-05T07:06:05.626Z,2.72
2022-08-05T07:08:47.598Z,3.13
2022-08-05T07:11:16.048Z,3.17
2022-08-05T07:14:02.584Z,3.15
2022-08-05T07:18:00.012Z,2.70
2022-08-05T07:22:28.373Z,2.58
2022-08-05T07:25:09.476Z,2.78
2022-08-05T07:27:58.558Z,2.55
2022-08-05T07:30:32.398Z,2.55
2022-08-05T07:33:05.104Z,2.83
2022-08-05T07:36:01.749Z,2.95
2022-08-05T07:38:34.513Z,2.40
2022-08-05T07:42:06.763Z,2.72
2022-08-05T07:43:56.390Z,2.33
2022-08-05T07:46:28.514Z,2.97
2022-08-05T07:49:02.656Z,2.50
2022-08-05T07:51:36.237Z,2.53
2022-08-05T07:54:08.493Z,2.40
2022-08-05T07:56:59.865Z,2.35
2022-08-05T07:59:38.653Z,2.60
2022-08-05T08:02:15.641Z,2.38
2022-08-05T08:04:47.311Z,2.38
2022-08-05T08:07:15.046Z,2.78
2022-08-05T08:09:43.176Z,2.30
2022-08-05T08:12:27.454Z,2.47
2022-08-05T08:14:57.789Z,2.22
2022-08-05T08:17:30.435Z,2.50
2022-08-05T08:20:42.878Z,2.45
2022-08-05T08:22:50.962Z,2.58
2022-08-05T08:25:27.126Z,2.58
2022-08-05T08:28:05.444Z,2.30
2022-08-05T08:30:48.045Z,3.53
2022-08-05T08:33:17.545Z,2.28
2022-08-05T08:35:52.937Z,2.40
2022-08-05T08:38:35.262Z,2.10
2022-08-05T08:41:06.921Z,1.98
2022-08-05T08:45:19.194Z,2.33
2022-08-05T08:46:24.287Z,2.22
2022-08-05T08:49:07.886Z,2.20
2022-08-05T08:52:03.855Z,2.42
2022-08-05T08:54:27.906Z,1.85
2022-08-05T08:56:56.578Z,3.45
2022-08-05T08:59:27.571Z,2.05
2022-08-05T09:01:57.300Z,2.00
2022-08-05T09:04:30.178Z,1.92
2022-08-05T09:06:58.455Z,2.58
2022-08-05T09:09:34.746Z,2.00
2022-08-05T09:12:14.424Z,2.28
2022-08-05T09:14:59.092Z,2.65
2022-08-05T09:17:42.442Z,2.22
2022-08-05T09:20:11.621Z,2.47
2022-08-05T09:23:07.913Z,1.95
2022-08-05T09:26:03.367Z,2.60
2022-08-05T09:28:32.044Z,2.72
2022-08-05T09:31:22.277Z,2.30
2022-08-05T09:34:00.996Z,3.78
2022-08-05T09:36:54.167Z,2.97
2022-08-05T09:39:41.470Z,2.10
2022-08-05T09:42:17.248Z,2.03
2022-08-05T09:44:52.667Z,3.30
2022-08-05T09:47:35.181Z,2.22
2022-08-05T09:50:18.241Z,2.00
2022-08-05T09:53:01.792Z,1.83
2022-08-05T09:55:57.088Z,2.47
2022-08-05T09:58:23.903Z,2.17
2022-08-05T10:01:13.513Z,1.90
2022-08-05T10:04:00.283Z,2.10
2022-08-05T10:06:28.143Z,1.98
2022-08-05T10:08:56.254Z,1.70
2022-08-05T10:11:23.954Z,2.28
2022-08-05T10:13:58.513Z,2.20
2022-08-05T10:16:37.949Z,2.10
2022-08-05T10:19:13.610Z,2.03
2022-08-05T10:21:41.180Z,2.22
2022-08-05T10:24:13.153Z,1.67
2022-08-05T10:26:51.244Z,2.50
2022-08-05T10:29:24.114Z,2.05
2022-08-05T10:32:53.841Z,2.90
2022-08-05T10:35:00.568Z,1.92
2022-08-05T10:37:40.047Z,2.35
2022-08-05T10:40:57.783Z,2.45
2022-08-05T10:43:45.476Z,2.42
2022-08-05T10:46:14.468Z,2.30
2022-08-05T10:48:56.501Z,2.00
2022-08-05T10:51:28.969Z,2.40
2022-08-05T10:54:23.120Z,2.03
2022-08-05T10:56:56.498Z,1.98
2022-08-05T11:00:03.710Z,2.25
2022-08-05T11:02:37.490Z,2.05
2022-08-05T11:05:10.261Z,1.98
2022-08-05T11:08:22.162Z,1.53
2022-08-05T11:11:00.941Z,2.35
2022-08-05T11:13:57.892Z,1.98
2022-08-05T11:16:33.858Z,2.45
2022-08-05T11:20:16.878Z,2.42
2022-08-05T11:22:39.859Z,2.58
2022-08-05T11:26:04.282Z,2.25
2022-08-05T11:28:25.812Z,1.90
2022-08-05T11:31:01.476Z,2.45
2022-08-05T11:33:47.896Z,1.90
2022-08-05T11:36:33.923Z,1.83
2022-08-05T11:39:01.986Z,1.90
2022-08-05T11:41:56.547Z,1.73
2022-08-05T11:44:40.420Z,2.00
2022-08-05T11:47:11.044Z,2.20
2022-08-05T11:49:43.019Z,2.78
2022-08-05T11:52:11.391Z,2.20
2022-08-05T11:54:40.464Z,2.03
2022-08-05T11:57:24.785Z,2.10
2022-08-05T12:02:31.721Z,1.88
2022-08-05T12:05:01.450Z,1.70
2022-08-05T12:08:08.263Z,2.08
2022-08-05T12:10:43.691Z,2.38
2022-08-05T12:13:16.515Z,2.97
2022-08-05T12:15:49.788Z,2.30
2022-08-05T12:18:18.981Z,2.08
2022-08-05T12:20:47.936Z,2.15
2022-08-05T12:23:16.507Z,2.15
2022-08-05T12:25:56.778Z,1.75
2022-08-05T12:28:34.252Z,2.17
2022-08-05T12:31:02.219Z,2.03
2022-08-05T12:33:36.554Z,1.90
2022-08-05T12:36:08.627Z,2.70
2022-08-05T12:38:41.121Z,2.40
2022-08-05T12:41:17.476Z,2.10
2022-08-05T12:43:55.488Z,2.20
2022-08-05T12:46:29.562Z,2.22
2022-08-05T12:49:14.559Z,1.80
2022-08-05T12:52:12.982Z,2.58
2022-08-05T12:54:33.185Z,2.42
2022-08-05T12:57:03.789Z,2.17
2022-08-05T13:00:08.481Z,2.28
2022-08-05T13:02:30.355Z,3.78
2022-08-05T13:04:58.719Z,1.95
2022-08-05T13:07:55.930Z,2.53
2022-08-05T13:10:15.060Z,2.50
2022-08-05T13:12:51.137Z,2.17
2022-08-05T13:15:42.203Z,2.00
2022-08-05T13:18:21.276Z,2.22
2022-08-05T13:20:51.167Z,2.10
2022-08-05T13:23:22.830Z,2.65
2022-08-05T13:25:59.435Z,2.00
2022-08-05T13:28:28.451Z,2.35
2022-08-05T13:30:57.079Z,2.70
2022-08-05T13:34:22.288Z,2.00
2022-08-05T13:36:14.583Z,2.25
2022-08-05T13:38:42.777Z,2.67
2022-08-05T13:41:11.490Z,2.38
2022-08-05T13:43:45.512Z,2.20
2022-08-05T13:46:44.027Z,1.77
2022-08-05T13:49:12.642Z,2.28
2022-08-05T13:51:46.729Z,2.00
2022-08-05T13:54:16.071Z,2.00
2022-08-05T13:56:45.093Z,2.25
2022-08-05T14:01:58.090Z,2.58
2022-08-05T14:04:56.078Z,2.13
2022-08-05T14:08:03.040Z,2.15
2022-08-05T14:10:30.823Z,1.80
2022-08-05T14:12:58.862Z,2.33
2022-08-05T14:16:07.404Z,2.15
2022-08-05T14:18:18.444Z,2.30
2022-08-05T14:20:49.013Z,1.95
2022-08-05T14:23:25.237Z,2.00
2022-08-05T14:25:58.967Z,2.13
2022-08-05T14:28:28.202Z,3.10
2022-08-05T14:30:56.604Z,3.45
2022-08-05T14:33:24.156Z,2.80
2022-08-05T14:35:54.044Z,2.17
2022-08-05T14:38:32.405Z,1.90
2022-08-05T14:41:03.593Z,2.53
2022-08-05T14:43:59.371Z,2.25
2022-08-05T14:46:28.015Z,2.45
2022-08-05T14:49:06.608Z,2.47
2022-08-05T14:51:42.641Z,2.60
2022-08-05T14:54:28.638Z,3.05
2022-08-05T14:56:57.555Z,2.30
2022-08-05T14:59:24.990Z,2.50
2022-08-05T15:01:57.644Z,2.72
2022-08-05T15:04:27.443Z,2.30
2022-08-05T15:06:56.433Z,2.92
2022-08-05T15:09:51.530Z,3.10
2022-08-05T15:12:11.588Z,3.15
2022-08-05T15:14:50.494Z,2.83
2022-08-05T15:17:46.398Z,2.63
2022-08-05T15:20:15.630Z,2.90
2022-08-05T15:22:45.923Z,3.00
2022-08-05T15:25:23.461Z,3.17
2022-08-05T15:28:07.337Z,2.47
2022-08-05T15:30:36.722Z,2.72
2022-08-05T15:33:04.507Z,3.50
2022-08-05T15:35:36.107Z,2.97
2022-08-05T15:38:33.631Z,2.63
2022-08-05T15:41:04.502Z,3.20
2022-08-05T15:43:45.912Z,2.97
2022-08-05T15:46:14.228Z,3.67
2022-08-05T15:48:52.658Z,3.15
2022-08-05T15:52:04.228Z,3.93
2022-08-05T15:54:16.733Z,3.58
2022-08-05T15:56:43.931Z,3.90
2022-08-05T15:59:21.954Z,3.22
2022-08-05T16:01:52.914Z,3.22
2022-08-05T16:04:25.673Z,3.08
2022-08-05T16:06:55.696Z,2.83
2022-08-05T16:09:24.009Z,3.38
2022-08-05T16:11:53.170Z,4.10
2022-08-05T16:14:22.379Z,4.03
2022-08-05T16:16:50.100Z,3.92
2022-08-05T16:19:25.829Z,3.95
2022-08-05T16:22:05.245Z,3.28
2022-08-05T16:24:41.454Z,3.38
2022-08-05T16:27:18.668Z,4.47
2022-08-05T16:29:50.291Z,3.05
2022-08-05T16:32:28.537Z,3.50
2022-08-05T16:34:57.556Z,3.28
2022-08-05T16:38:02.446Z,3.30
2022-08-05T16:40:26.660Z,3.45
2022-08-05T16:42:56.779Z,3.42
2022-08-05T16:46:06.487Z,3.70
2022-08-05T16:48:10.969Z,3.97
2022-08-05T16:50:53.244Z,5.35
2022-08-05T16:53:23.350Z,3.55
2022-08-05T16:55:59.774Z,2.95
2022-08-05T16:58:26.876Z,2.88
2022-08-05T17:00:54.235Z,3.65
2022-08-05T17:03:22.179Z,3.33
2022-08-05T17:05:53.909Z,2.90
2022-08-05T17:08:35.886Z,3.38
2022-08-05T17:11:03.812Z,2.63
2022-08-05T17:13:37.382Z,2.25
2022-08-05T17:16:29.770Z,2.63
2022-08-05T17:18:55.808Z,2.17
2022-08-05T17:21:23.767Z,2.63
2022-08-05T17:24:03.099Z,1.90
2022-08-05T17:26:33.309Z,1.92
2022-08-05T17:29:00.396Z,1.70
2022-08-05T17:31:41.491Z,3.72
2022-08-05T17:34:21.603Z,1.60
2022-08-05T17:37:00.159Z,1.52
2022-08-05T17:39:34.607Z,1.40
2022-08-05T17:42:19.658Z,1.10
2022-08-05T17:44:51.417Z,1.45
2022-08-05T17:47:22.138Z,1.33
2022-08-05T17:49:59.715Z,1.02
2022-08-05T17:52:32.680Z,1.13
2022-08-05T17:55:00.625Z,1.20
2022-08-05T17:57:30.213Z,0.70
2022-08-05T18:00:03.315Z,0.90
2022-08-05T18:02:32.647Z,1.45
2022-08-05T18:05:02.876Z,2.30
2022-08-05T18:07:41.909Z,2.53
2022-08-05T18:10:11.381Z,1.20
2022-08-05T18:12:39.317Z,1.35
2022-08-05T18:15:06.992Z,1.00
2022-08-05T18:17:59.678Z,0.70
2022-08-05T18:20:29.267Z,1.33
2022-08-05T18:25:44.954Z,0.90
2022-08-05T18:28:17.525Z,0.90
2022-08-05T18:30:45.512Z,0.80
2022-08-05T18:33:22.999Z,0.70
2022-08-05T18:36:00.981Z,0.60
2022-08-05T18:38:31.226Z,0.70
2022-08-05T18:41:53.860Z,0.63
2022-08-05T18:43:48.402Z,1.23
2022-08-05T18:46:19.779Z,0.75
2022-08-05T18:48:52.257Z,0.57
2022-08-05T18:52:04.543Z,0.70
2022-08-05T18:54:26.478Z,0.80
2022-08-05T18:56:57.216Z,0.70
2022-08-05T18:59:43.058Z,0.60
2022-08-05T19:02:26.980Z,0.65
2022-08-05T19:05:02.914Z,0.70
2022-08-05T19:07:45.861Z,0.70
2022-08-05T19:10:14.972Z,0.77
2022-08-05T19:12:43.103Z,0.90
2022-08-05T19:15:25.251Z,0.75
2022-08-05T19:18:08.185Z,0.82
2022-08-05T19:20:41.149Z,0.95
2022-08-05T19:24:04.350Z,1.00
2022-08-05T19:26:01.912Z,0.95
2022-08-05T19:28:30.928Z,0.90
2022-08-05T19:30:58.094Z,1.52
2022-08-05T19:33:35.961Z,1.58
2022-08-05T19:36:07.141Z,1.83
2022-08-05T19:38:36.339Z,1.60
2022-08-05T19:41:06.777Z,2.40
2022-08-05T19:44:05.862Z,2.08
2022-08-05T19:46:29.754Z,2.30
2022-08-05T19:49:03.219Z,2.40
2022-08-05T19:52:09.285Z,2.40
2022-08-05T19:54:21.708Z,2.03
2022-08-05T19:56:55.767Z,2.00
2022-08-05T19:59:55.785Z,2.22
2022-08-05T20:02:10.203Z,2.45
2022-08-05T20:04:38.114Z,1.52
2022-08-05T20:07:13.437Z,1.90
2022-08-05T20:09:54.395Z,1.70
2022-08-05T20:12:24.925Z,1.88
2022-08-05T20:14:53.137Z,1.60
2022-08-05T20:17:23.711Z,1.45
2022-08-05T20:19:56.824Z,1.45
2022-08-05T20:22:26.746Z,1.83
2022-08-05T20:24:55.830Z,1.75
2022-08-05T20:27:26.766Z,1.40
2022-08-05T20:29:58.541Z,1.30
2022-08-05T20:32:27.083Z,1.45
2022-08-05T20:34:54.909Z,2.03
2022-08-05T20:38:05.499Z,1.83
2022-08-05T20:40:09.910Z,1.88
2022-08-05T20:42:37.112Z,1.35
2022-08-05T20:45:05.255Z,1.55
2022-08-05T20:47:33.421Z,1.42
2022-08-05T20:50:02.108Z,1.70
2022-08-05T20:52:29.969Z,1.40
2022-08-05T20:55:15.788Z,1.20
2022-08-05T20:57:45.374Z,1.20
2022-08-05T21:00:41.502Z,1.40
2022-08-05T21:03:07.440Z,2.15
2022-08-05T21:05:48.279Z,2.00
2022-08-05T21:08:33.160Z,2.20
2022-08-05T21:11:11.852Z,3.15
2022-08-05T21:13:47.945Z,2.50
2022-08-05T21:16:29.833Z,2.53
2022-08-05T21:18:59.949Z,1.95
2022-08-05T21:21:39.145Z,2.13
2022-08-05T21:24:15.421Z,1.92
2022-08-05T21:26:50.504Z,1.92
2022-08-05T21:29:23.463Z,1.92
2022-08-05T21:31:54.534Z,1.75
2022-08-05T21:34:23.130Z,1.48
2022-08-05T21:36:51.634Z,1.33
2022-08-05T21:39:26.971Z,1.83
2022-08-05T21:42:01.483Z,1.50
2022-08-05T21:44:32.452Z,1.55
2022-08-05T21:47:00.155Z,1.30
2022-08-05T21:49:58.585Z,1.52
2022-08-05T21:52:22.299Z,1.30
2022-08-05T21:54:56.799Z,1.20
2022-08-05T21:57:32.579Z,1.42
2022-08-05T22:00:06.438Z,1.45
2022-08-05T22:02:34.687Z,1.50
2022-08-05T22:05:01.836Z,1.45
2022-08-05T22:07:40.329Z,1.60
2022-08-05T22:10:25.593Z,1.63
2022-08-05T22:12:58.912Z,1.50
2022-08-05T22:16:02.729Z,1.70
2022-08-05T22:18:14.457Z,1.98
2022-08-05T22:20:42.932Z,1.35
2022-08-05T22:24:02.867Z,1.77
2022-08-05T22:26:35.533Z,1.48
2022-08-05T22:31:30.869Z,1.52
2022-08-05T22:34:20.123Z,1.58
2022-08-05T22:36:55.932Z,1.85
2022-08-05T22:39:23.178Z,1.50
2022-08-05T22:42:10.353Z,1.60
2022-08-05T22:44:37.814Z,1.60
2022-08-05T22:47:05.827Z,1.88
2022-08-05T22:50:20.986Z,2.70
2022-08-05T22:52:30.341Z,1.73
2022-08-05T22:55:02.306Z,1.80
2022-08-05T22:57:36.323Z,1.80
2022-08-05T23:00:08.950Z,1.38
2022-08-05T23:02:37.612Z,1.60
2022-08-05T23:05:14.801Z,1.50
2022-08-05T23:07:45.377Z,1.65
2022-08-05T23:10:16.404Z,1.40
2022-08-05T23:12:54.454Z,1.67
2022-08-05T23:15:29.207Z,1.90
2022-08-05T23:18:00.609Z,1.65
2022-08-05T23:20:31.419Z,1.30
2022-08-05T23:22:59.769Z,1.65
2022-08-05T23:25:51.217Z,1.23
2022-08-05T23:28:15.976Z,1.40
2022-08-05T23:30:53.831Z,1.50
2022-08-05T23:33:26.067Z,1.40
2022-08-05T23:36:10.073Z,0.98
2022-08-05T23:38:38.111Z,1.30
2022-08-05T23:41:05.325Z,1.42
2022-08-05T23:44:03.739Z,1.00
2022-08-05T23:46:22.124Z,1.40
2022-08-05T23:49:00.568Z,0.95
2022-08-05T23:51:52.449Z,1.00
2022-08-05T23:54:25.516Z,1.02
2022-08-05T23:57:03.635Z,1.05
